• Join FlightAware (Why Join?)
  • Login
  • US Flag 
09:44PM EST


 

Airport Tracker/Info


-or-


 

Live Flight TrackerFlight Track Log ✈ AM214 ✈ 02-May-2013 ✈ YWLM / NTL - YPMQ / PQQ

Flight Track Log - Related Links

Times and Time Zones

All times are in EDT time to prevent confusion due to time zone crossing. See the AM214 flight status page for this flight to view local times or setup timezone preferences in your user account.

Time Position Orientation Groundspeed Altitude Reporting Facility
EDT Latitude Longitude Course Direction KTS MPH feet Rate Location/Type
03:15AM -32.7930 151.8340 309° West 20 23  Level FlightAware
03:16AM -32.7930 151.8330 270° West 9 10 180 Level FlightAware
03:17AM -32.7900 151.8300 320° Northwest 16 18 180 Level FlightAware
03:18AM -32.7890 151.8280 301° West 11 13 300 Level FlightAware
03:19AM -32.7910 151.8280 180° South 78 90 420 Level FlightAware
03:19AM -32.7960 151.8360 127° Southeast 78 90 1,200 Level FlightAware
03:20AM -32.8090 151.8550 129° Southeast 147 169 900 2,220 Climbing FlightAware
03:20AM -32.8020 151.8750 67° East 181 208 1,700 1,920 Climbing FlightAware
03:21AM -32.7790 151.8910 30° Northeast 189 217 2,700 2,280 Climbing FlightAware
03:21AM -32.7620 151.9030 31° Northeast 192 221 3,600 2,880 Climbing FlightAware
03:21AM -32.7399 151.9190 31° Northeast 192 221 5,000 2,220 Climbing Aus ATC (RADAR)
03:22AM -32.7360 151.9220 31° Northeast 190 219 4,900 1,260 Descending FlightAware
03:22AM -32.7170 151.9360 32° Northeast 190 219 5,700 1,800 Climbing FlightAware
03:22AM -32.6940 151.9530 32° Northeast 193 222 6,600 1,860 Climbing FlightAware
03:23AM -32.6720 151.9690 31° Northeast 193 222 7,600 1,800 Climbing FlightAware
03:23AM -32.6530 151.9830 32° Northeast 190 219 8,300 2,160 Climbing FlightAware
03:24AM -32.6376 151.9946 32° Northeast 196 226 9,100 1,380 Climbing Aus ATC (RADAR)
03:24AM -32.6290 152.0010 32° Northeast 208 239 9,000 1,560 Descending FlightAware
03:24AM -32.6129 152.0130 32° Northeast 206 237 9,900 1,920 Climbing Aus ATC (RADAR)
03:24AM -32.6080 152.0160 32° Northeast 207 238 9,800 1,440 Descending FlightAware
03:25AM -32.5710 152.0440 33° Northeast 213 245 11,200 1,800 Climbing FlightAware
03:26AM -32.5370 152.0690 32° Northeast 210 242 12,400 1,260 Climbing FlightAware
03:26AM -32.4970 152.0990 32° Northeast 253 291 13,000 420 Climbing FlightAware
03:27AM -32.4550 152.1290 31° Northeast 263 303 13,000 360 Level FlightAware
03:28AM -32.4248 152.1504 31° Northeast 263 303 13,400  Climbing Aus ATC (RADAR)
03:28AM -32.4190 152.1550 31° Northeast 264 304 13,000  Descending FlightAware
03:28AM -32.3883 152.1777 31° Northeast 266 306 13,400  Climbing Aus ATC (RADAR)
03:28AM -32.3770 152.1860 31° Northeast 266 306 13,000 -420 Descending FlightAware
03:29AM -32.3290 152.2210 32° Northeast 266 306 13,000 300 Level FlightAware
03:30AM -32.2994 152.2428 32° Northeast 267 307 13,400  Climbing Aus ATC (RADAR)
03:30AM -32.2880 152.2510 32° Northeast 265 305 13,000  Descending FlightAware
03:30AM -32.2577 152.2732 32° Northeast 266 306 13,400  Climbing Aus ATC (RADAR)
03:31AM -32.2410 152.2850 32° Northeast 265 305 13,000 -420 Descending FlightAware
03:31AM -32.2000 152.3150 32° Northeast 265 305 13,000 420 Level FlightAware
03:31AM -32.1795 152.3303 32° Northeast 266 306 13,400  Climbing Aus ATC (RADAR)
03:32AM -32.1520 152.3500 32° Northeast 264 304 13,000 -360 Descending FlightAware
03:33AM -32.1110 152.3800 32° Northeast 264 304 13,000 300 Level FlightAware
03:33AM -32.0908 152.3948 32° Northeast 266 306 13,300  Climbing Aus ATC (RADAR)
03:33AM -32.0650 152.4130 32° Northeast 265 305 13,000  Descending FlightAware
03:34AM -32.0228 152.4447 32° Northeast 269 310 13,300  Climbing Aus ATC (RADAR)
03:34AM -32.0050 152.4570 32° Northeast 265 305 13,000  Descending FlightAware
03:35AM -31.9811 152.4752 32° Northeast 267 307 13,300  Climbing Aus ATC (RADAR)
03:35AM -31.9740 152.4800 32° Northeast 265 305 13,000  Descending FlightAware
03:36AM -31.9242 152.5158 32° Northeast 262 302 13,300  Climbing Aus ATC (RADAR)
03:36AM -31.9310 152.5100 32° Northeast 263 303 13,000 -420 Descending FlightAware
03:36AM -31.8850 152.5430 31° Northeast 262 302 13,000 -600 Level FlightAware
03:37AM -31.8450 152.5730 31° Northeast 269 310 12,200 -1,200 Descending FlightAware
03:37AM -31.8347 152.5809 31° Northeast 275 316 12,200  Level Aus ATC (RADAR)
03:38AM -31.7950 152.6100 32° Northeast 269 310 12,200 -1,500 Level FlightAware
03:38AM -31.7467 152.6445 32° Northeast 278 320 10,200  Descending Aus ATC (RADAR)
03:38AM -31.7590 152.6360 32° Northeast 269 310 12,200 -1,560 Climbing FlightAware
03:41AM -31.6470 152.7150 31° Northeast  Level Estimated
03:41AM -31.6067 152.7446 31° Northeast 255 293 6,800  Level Aus ATC (RADAR)
03:41AM -31.5876 152.7584 32° Northeast 248 285 6,400 -1,200 Descending Aus ATC (RADAR)
03:42AM -31.5366 152.7949 31° Northeast 234 269 5,300 -1,200 Descending Aus ATC (RADAR)
03:42AM -31.5043 152.8178 31° Northeast 234 269 4,600 -1,200 Descending Aus ATC (RADAR)
03:43AM -31.4784 152.8338 28° Northeast 240 276 4,100 -1,200 Descending Aus ATC (RADAR)
03:45AM -31.4359 152.8634 264° West  Level FlightAware Approximate
03:52AM -31.4358 152.8633 264° West  Level Estimated
03:53AM -31.4358 152.8633 264° West  Level Estimated
03:54AM -31.4358 152.8633 264° West  Level Estimated
03:55AM -31.4358 152.8633 264° West  Level Estimated
03:56AM -31.4358 152.8633 264° West  Level Estimated